createdAt,value
2023-01-17T09:53:03.155Z,97632.38
2023-01-17T09:55:08.132Z,97632.38
2023-01-17T09:57:29.014Z,97140.56
2023-01-17T09:59:39.005Z,96995.53
2023-01-17T10:01:54.022Z,96916.81
2023-01-17T10:04:09.940Z,96847.50
2023-01-17T10:06:24.159Z,96843.78
2023-01-17T10:08:26.408Z,96809.06
2023-01-17T10:10:35.198Z,96769.25
2023-01-17T10:12:44.051Z,96785.19
2023-01-17T10:15:07.293Z,96844.66
2023-01-17T10:17:37.686Z,96826.66
2023-01-17T10:20:08.046Z,96806.72
2023-01-17T10:22:16.643Z,96856.91
2023-01-17T10:25:00.227Z,96900.91
2023-01-17T10:27:09.975Z,96893.84
2023-01-17T10:29:20.179Z,96913.72
2023-01-17T10:31:24.693Z,96901.72
2023-01-17T10:33:30.029Z,96890.25
2023-01-17T10:35:39.143Z,96895.59
2023-01-17T10:37:44.120Z,96905.69
2023-01-17T10:39:49.092Z,96898.72
2023-01-17T10:41:59.529Z,96908.44
2023-01-17T10:44:06.380Z,96887.44
2023-01-17T10:46:15.951Z,96915.38
2023-01-17T10:48:39.986Z,96918.94
2023-01-17T10:51:00.360Z,96931.91
2023-01-17T10:53:14.435Z,96911.72
2023-01-17T10:55:17.046Z,96962.03
2023-01-17T10:57:24.960Z,96996.94
2023-01-17T10:59:37.188Z,96951.16
2023-01-17T11:01:40.040Z,96951.56
2023-01-17T11:03:44.955Z,96972.84
2023-01-17T11:06:20.731Z,96958.69
2023-01-17T11:08:23.597Z,96976.97
2023-01-17T11:10:54.145Z,97016.28
2023-01-17T11:12:56.526Z,97010.28
2023-01-17T11:15:11.211Z,97077.97
2023-01-17T11:17:13.950Z,97147.47
2023-01-17T11:19:26.742Z,97194.78
2023-01-17T11:21:29.399Z,97230.84
2023-01-17T11:23:33.540Z,97245.06
2023-01-17T11:25:36.302Z,97256.28
2023-01-17T11:27:40.029Z,97318.94
2023-01-17T11:29:42.469Z,97323.16
2023-01-17T11:31:44.822Z,97531.50
2023-01-17T11:33:55.517Z,97848.59
2023-01-17T11:35:57.891Z,98093.28
2023-01-17T11:38:10.503Z,98263.37
2023-01-17T11:40:15.847Z,98329.81
2023-01-17T11:42:36.749Z,98352.75
2023-01-17T11:44:39.076Z,98359.97
2023-01-17T11:46:41.716Z,98364.34
2023-01-17T11:48:55.989Z,98368.06
2023-01-17T11:51:00.222Z,98378.25
2023-01-17T11:53:26.631Z,98375.69
2023-01-17T11:55:29.095Z,98365.97
2023-01-17T11:57:34.896Z,98364.59
2023-01-17T11:59:42.499Z,98349.34
2023-01-17T12:02:17.529Z,98377.56
2023-01-17T12:04:40.078Z,98381.75
2023-01-17T12:06:58.557Z,98402.41
2023-01-17T12:09:10.212Z,98411.72
2023-01-17T12:12:05.295Z,98422.28
2023-01-17T12:14:33.829Z,98432.28
2023-01-17T12:17:04.274Z,98433.13
2023-01-17T12:19:33.630Z,98415.94
2023-01-17T12:22:03.902Z,98400.69
2023-01-17T12:24:24.736Z,98408.56
2023-01-17T12:26:30.088Z,98421.00
2023-01-17T12:28:42.113Z,98411.88
2023-01-17T12:30:53.470Z,98398.53
2023-01-17T12:32:55.812Z,98394.31
2023-01-17T12:35:19.265Z,98379.84
2023-01-17T12:37:29.665Z,98374.97
2023-01-17T12:39:38.879Z,98365.72
2023-01-17T12:42:08.613Z,98371.56
2023-01-17T12:44:16.179Z,98363.56
2023-01-17T12:46:24.630Z,98343.38
2023-01-17T12:48:32.252Z,98316.66
2023-01-17T12:50:41.361Z,98302.13
2023-01-17T12:52:43.702Z,98291.34
2023-01-17T12:54:51.911Z,98290.06
2023-01-17T12:57:01.251Z,98276.25
2023-01-17T12:59:15.911Z,98268.66
2023-01-17T13:01:25.483Z,98270.94
2023-01-17T13:03:41.547Z,98253.50
2023-01-17T13:05:46.835Z,98260.72
2023-01-17T13:07:59.055Z,98260.28
2023-01-17T13:10:22.309Z,98246.78
2023-01-17T13:12:29.294Z,98220.59
2023-01-17T13:14:32.950Z,98197.63
2023-01-17T13:17:13.244Z,98184.50
2023-01-17T13:19:33.056Z,98198.78
2023-01-17T13:21:36.204Z,98205.00
2023-01-17T13:23:54.188Z,98219.25
2023-01-17T13:25:59.234Z,98207.19
2023-01-17T13:28:32.739Z,98206.12
2023-01-17T13:30:50.770Z,98177.53
2023-01-17T13:33:31.291Z,98155.38
2023-01-17T13:35:59.682Z,98128.59
2023-01-17T13:38:20.993Z,98106.25
2023-01-17T13:40:49.068Z,98069.38
2023-01-17T13:43:18.289Z,98030.75
2023-01-17T13:45:24.220Z,98005.00
2023-01-17T13:47:27.536Z,97970.59
2023-01-17T13:49:30.302Z,97959.16
2023-01-17T13:52:27.177Z,97940.41
2023-01-17T13:54:32.605Z,97946.53
2023-01-17T13:56:35.872Z,97969.09
2023-01-17T13:58:50.008Z,97967.22
2023-01-17T14:00:54.849Z,97946.53
2023-01-17T14:02:57.609Z,97906.03
2023-01-17T14:05:08.879Z,97899.25
2023-01-17T14:07:24.170Z,97894.09
2023-01-17T14:09:40.470Z,97883.81
2023-01-17T14:12:10.727Z,97858.25
2023-01-17T14:14:36.265Z,97793.13
2023-01-17T14:16:39.485Z,97751.66
2023-01-17T14:18:43.904Z,97737.13
2023-01-17T14:20:50.607Z,97704.88
2023-01-17T14:22:57.441Z,97662.22
2023-01-17T14:25:17.713Z,97604.62
2023-01-17T14:27:24.858Z,97580.34
2023-01-17T14:29:42.781Z,97592.84
2023-01-17T14:31:45.639Z,97606.56
2023-01-17T14:33:48.318Z,97589.94
2023-01-17T14:36:29.587Z,97576.28
2023-01-17T14:38:34.356Z,97561.97
2023-01-17T14:40:38.638Z,97563.56
2023-01-17T14:42:42.851Z,97578.88
2023-01-17T14:44:47.303Z,97577.34
2023-01-17T14:46:49.847Z,97569.91
2023-01-17T14:49:00.552Z,97578.97
2023-01-17T14:51:13.412Z,97579.09
2023-01-17T14:53:28.004Z,97557.75
2023-01-17T14:55:30.755Z,97545.16
2023-01-17T14:57:33.233Z,97550.22
2023-01-17T14:59:35.680Z,97537.72
2023-01-17T15:01:38.445Z,97534.19
2023-01-17T15:03:51.170Z,97520.91
2023-01-17T15:05:56.321Z,97507.22
2023-01-17T15:07:59.394Z,97519.19
2023-01-17T15:10:06.371Z,97541.25
2023-01-17T15:12:11.414Z,97525.34
2023-01-17T15:14:42.946Z,97530.03
2023-01-17T15:16:45.301Z,97518.13
2023-01-17T15:18:48.661Z,97512.94
2023-01-17T15:20:57.064Z,97500.84
2023-01-17T15:22:59.539Z,97467.28
2023-01-17T15:25:02.626Z,97455.81
2023-01-17T15:27:06.369Z,97447.34
2023-01-17T15:29:19.885Z,97458.06
2023-01-17T15:31:22.180Z,97463.03
2023-01-17T15:33:24.910Z,97454.28
2023-01-17T15:35:28.365Z,97485.13
2023-01-17T15:37:40.631Z,97470.66
2023-01-17T15:39:43.367Z,97454.66
2023-01-17T15:41:47.607Z,97458.03
2023-01-17T15:43:51.358Z,97458.06
2023-01-17T15:45:57.264Z,97469.69
2023-01-17T15:48:36.676Z,97464.75
2023-01-17T15:50:39.849Z,97455.75
2023-01-17T15:52:50.852Z,97456.19
2023-01-17T15:55:11.238Z,97476.50
2023-01-17T15:57:36.992Z,97452.97
2023-01-17T15:59:48.207Z,97477.53
2023-01-17T16:01:58.940Z,97473.28
2023-01-17T16:04:01.676Z,97467.22
2023-01-17T16:06:36.816Z,97463.84
2023-01-17T16:08:51.316Z,97453.31
2023-01-17T16:11:02.244Z,97439.91
2023-01-17T16:13:06.654Z,97458.47
2023-01-17T16:15:13.428Z,97448.63
2023-01-17T16:17:17.780Z,97491.66
2023-01-17T16:19:21.535Z,97502.28
2023-01-17T16:21:28.240Z,97514.34
2023-01-17T16:23:31.000Z,97519.84
2023-01-17T16:25:33.540Z,97520.03
2023-01-17T16:27:36.049Z,97526.09
2023-01-17T16:29:38.835Z,97540.19
2023-01-17T16:31:41.512Z,97515.84
2023-01-17T16:33:46.251Z,97475.31
2023-01-17T16:35:51.261Z,97479.56
2023-01-17T16:37:59.598Z,97473.78
2023-01-17T16:40:02.101Z,97402.28
2023-01-17T16:42:04.924Z,97364.56
2023-01-17T16:44:07.804Z,97320.28
2023-01-17T16:46:12.248Z,97275.78
2023-01-17T16:48:17.186Z,97270.81
2023-01-17T16:50:24.163Z,97232.88
2023-01-17T16:52:26.720Z,97180.37
2023-01-17T16:54:29.435Z,97126.87
2023-01-17T16:56:31.999Z,97108.16
2023-01-17T16:58:34.448Z,97088.94
2023-01-17T17:00:37.630Z,97035.94
2023-01-17T17:02:40.837Z,97023.50
2023-01-17T17:04:43.409Z,96947.78
2023-01-17T17:06:46.250Z,96885.13
2023-01-17T17:08:48.661Z,96739.56
2023-01-17T17:10:51.408Z,96684.03
2023-01-17T17:12:54.622Z,96602.66
2023-01-17T17:14:57.107Z,96530.63
2023-01-17T17:17:02.492Z,96438.34
2023-01-17T17:19:06.749Z,96306.06
2023-01-17T17:21:09.298Z,96171.75
2023-01-17T17:23:11.947Z,96123.50
2023-01-17T17:25:16.288Z,96091.56
2023-01-17T17:27:18.933Z,96023.91
2023-01-17T17:29:21.607Z,95951.66
2023-01-17T17:31:24.657Z,95901.13
2023-01-17T17:33:27.804Z,95830.88
2023-01-17T17:35:33.461Z,95793.00
2023-01-17T17:37:36.151Z,95688.81
2023-01-17T17:39:39.050Z,95528.66
2023-01-17T17:41:43.855Z,95415.16
2023-01-17T17:43:47.217Z,95382.31
2023-01-17T17:45:49.668Z,95293.91
2023-01-17T17:47:52.632Z,95256.22
2023-01-17T17:49:56.056Z,95192.47
2023-01-17T17:52:09.675Z,95137.41
2023-01-17T17:54:14.717Z,95084.16
2023-01-17T17:56:17.979Z,95062.19
2023-01-17T17:58:22.209Z,95057.38
2023-01-17T18:00:29.977Z,95029.88
2023-01-17T18:02:33.590Z,94987.97
2023-01-17T18:04:38.272Z,94979.31
2023-01-17T18:06:42.205Z,94932.50
2023-01-17T18:08:45.568Z,94908.69
2023-01-17T18:10:48.249Z,94895.31
2023-01-17T18:12:51.647Z,94857.16
2023-01-17T18:14:55.144Z,94806.41
2023-01-17T18:16:58.080Z,94793.34
2023-01-17T18:19:03.392Z,94770.78
2023-01-17T18:21:13.251Z,94734.66
2023-01-17T18:23:16.524Z,94725.00
2023-01-17T18:25:20.731Z,94727.97
2023-01-17T18:27:24.184Z,94728.66
2023-01-17T18:29:27.881Z,94713.22
2023-01-17T18:31:31.904Z,94712.19
2023-01-17T18:33:38.127Z,94680.28
2023-01-17T18:35:41.246Z,94670.78
2023-01-17T18:37:43.972Z,94639.72
2023-01-17T18:39:50.634Z,94592.31
2023-01-17T18:41:54.441Z,94583.63
2023-01-17T18:43:58.633Z,94581.53
2023-01-17T18:46:02.731Z,94566.78
2023-01-17T18:48:05.947Z,94552.56
2023-01-17T18:50:09.431Z,94543.75
2023-01-17T18:52:14.151Z,94550.16
2023-01-17T18:54:18.812Z,94511.84
2023-01-17T18:56:23.339Z,94523.00
2023-01-17T18:58:28.595Z,94515.53
2023-01-17T19:00:32.239Z,94509.16
2023-01-17T19:02:35.618Z,94511.13
2023-01-17T19:04:39.954Z,94486.09
2023-01-17T19:06:45.467Z,94479.88
2023-01-17T19:08:52.033Z,94484.28
2023-01-17T19:11:00.552Z,94496.56
2023-01-17T19:13:04.131Z,94515.16
2023-01-17T19:15:07.801Z,94516.66
2023-01-17T19:17:11.589Z,94520.03
2023-01-17T19:19:16.523Z,94535.00
2023-01-17T19:21:23.976Z,94564.34
2023-01-17T19:23:27.968Z,94591.84
2023-01-17T19:25:31.432Z,94611.06
2023-01-17T19:27:34.783Z,94636.09
2023-01-17T19:29:39.941Z,94675.06
2023-01-17T19:31:43.763Z,94706.25
2023-01-17T19:33:49.345Z,94740.34
2023-01-17T19:35:52.892Z,94756.19
2023-01-17T19:37:56.179Z,94804.03
2023-01-17T19:39:59.864Z,94821.41
2023-01-17T19:42:03.535Z,94846.22
2023-01-17T19:44:09.318Z,94866.81
2023-01-17T19:46:12.739Z,94895.19
2023-01-17T19:48:17.469Z,94925.97
2023-01-17T19:50:20.878Z,94938.22
2023-01-17T19:52:24.413Z,94945.84
2023-01-17T19:54:28.458Z,94969.59
2023-01-17T19:56:32.176Z,94997.94
2023-01-17T19:58:35.678Z,95029.69
2023-01-17T20:00:46.515Z,95037.13
2023-01-17T20:02:51.466Z,95050.12
2023-01-17T20:04:54.540Z,95077.41
2023-01-17T20:06:58.080Z,95093.22
2023-01-17T20:09:02.549Z,95124.31
2023-01-17T20:11:08.409Z,95153.81
2023-01-17T20:13:16.663Z,95173.97
2023-01-17T20:15:23.575Z,95184.94
2023-01-17T20:17:27.360Z,95204.91
2023-01-17T20:19:30.904Z,95226.53
2023-01-17T20:21:35.960Z,95257.31
2023-01-17T20:23:42.344Z,95282.75
2023-01-17T20:25:59.196Z,95308.19
2023-01-17T20:28:04.994Z,95328.66
2023-01-17T20:30:19.685Z,95360.09
2023-01-17T20:32:23.970Z,95397.47
2023-01-17T20:34:27.319Z,95440.12
2023-01-17T20:36:30.526Z,95469.06
2023-01-17T20:38:44.289Z,95481.44
2023-01-17T20:40:55.388Z,95516.53
2023-01-17T20:42:58.083Z,95548.59
2023-01-17T20:45:00.647Z,95582.94
2023-01-17T20:47:23.940Z,95614.81
2023-01-17T20:49:26.699Z,95633.00
2023-01-17T20:51:30.971Z,95653.75
2023-01-17T20:53:38.359Z,95652.22
2023-01-17T20:55:41.340Z,95653.84
2023-01-17T20:57:44.336Z,95677.16
2023-01-17T20:59:49.092Z,95707.12
2023-01-17T21:01:52.281Z,95742.56
2023-01-17T21:03:54.786Z,95787.34
2023-01-17T21:06:01.997Z,95808.28
2023-01-17T21:08:05.234Z,95815.25
2023-01-17T21:10:08.880Z,95814.97
2023-01-17T21:12:11.637Z,95808.53
2023-01-17T21:14:14.245Z,95796.59
2023-01-17T21:16:17.943Z,95772.09
2023-01-17T21:18:22.654Z,95782.78
2023-01-17T21:20:27.361Z,95807.56
2023-01-17T21:22:29.931Z,95833.41
2023-01-17T21:24:32.573Z,95852.91
2023-01-17T21:26:35.216Z,95875.78
2023-01-17T21:28:39.409Z,95884.75
2023-01-17T21:30:42.288Z,95896.12
2023-01-17T21:32:44.681Z,95886.38
2023-01-17T21:34:47.060Z,95897.09
2023-01-17T21:36:49.817Z,95925.56
2023-01-17T21:38:54.806Z,95950.91
2023-01-17T21:40:57.097Z,95975.72
2023-01-17T21:42:59.863Z,96024.78
2023-01-17T21:45:02.183Z,96052.66
2023-01-17T21:47:04.604Z,96072.50
2023-01-17T21:49:10.735Z,96078.19
2023-01-17T21:51:13.387Z,96105.13
2023-01-17T21:53:15.841Z,96137.09
2023-01-17T21:55:36.938Z,96169.88
2023-01-17T21:58:05.086Z,96193.03
2023-01-17T22:00:16.047Z,96193.25
2023-01-17T22:02:18.707Z,96183.81
2023-01-17T22:04:21.020Z,96160.09
2023-01-17T22:06:26.052Z,96138.53
2023-01-17T22:08:37.740Z,96121.91
2023-01-17T22:10:46.534Z,96102.44
2023-01-17T22:12:52.315Z,96104.09
2023-01-17T22:14:55.014Z,96081.63
2023-01-17T22:16:57.327Z,96055.72
2023-01-17T22:18:59.703Z,96045.91
2023-01-17T22:21:08.438Z,96041.97
2023-01-17T22:23:11.862Z,96039.69
2023-01-17T22:25:14.199Z,96028.59
2023-01-17T22:27:16.808Z,96031.56
2023-01-17T22:29:19.145Z,96031.72
2023-01-17T22:31:25.092Z,96024.34
2023-01-17T22:33:27.754Z,96009.53
2023-01-17T22:35:30.351Z,96002.88
2023-01-17T22:37:32.653Z,96008.97
2023-01-17T22:39:35.332Z,96024.25
2023-01-17T22:41:38.445Z,96020.22
2023-01-17T22:43:43.143Z,96016.16
2023-01-17T22:45:46.063Z,96014.53
2023-01-17T22:47:48.414Z,96015.19
2023-01-17T22:49:50.799Z,96018.34
2023-01-17T22:51:53.412Z,96023.25
2023-01-17T22:53:58.875Z,96012.25
2023-01-17T22:56:07.148Z,96017.41
2023-01-17T22:58:09.795Z,96006.72
2023-01-17T23:00:14.579Z,95997.50
2023-01-17T23:02:18.455Z,96000.63
2023-01-17T23:04:21.069Z,95987.22
